sensor_id;sensor_type;location;lat;lon;timestamp;pressure;altitude;pressure_sealevel;temperature;humidity
51147;BME280;37207;53.060;18.726;2023-04-03T00:01:38;101755.19;;;-0.29;86.05
51147;BME280;37207;53.060;18.726;2023-04-03T00:04:05;101753.63;;;-0.31;86.39
51147;BME280;37207;53.060;18.726;2023-04-03T00:06:31;101754.64;;;-0.31;86.08
51147;BME280;37207;53.060;18.726;2023-04-03T00:08:58;101755.27;;;-0.31;86.24
51147;BME280;37207;53.060;18.726;2023-04-03T00:11:24;101755.40;;;-0.32;86.36
51147;BME280;37207;53.060;18.726;2023-04-03T00:13:50;101755.95;;;-0.32;85.99
51147;BME280;37207;53.060;18.726;2023-04-03T00:16:17;101754.09;;;-0.31;86.31
51147;BME280;37207;53.060;18.726;2023-04-03T00:18:43;101757.42;;;-0.30;86.44
51147;BME280;37207;53.060;18.726;2023-04-03T00:21:12;101754.08;;;-0.32;86.82
51147;BME280;37207;53.060;18.726;2023-04-03T00:23:38;101752.14;;;-0.34;86.78
51147;BME280;37207;53.060;18.726;2023-04-03T00:26:03;101757.81;;;-0.37;87.45
51147;BME280;37207;53.060;18.726;2023-04-03T00:28:29;101759.27;;;-0.41;87.72
51147;BME280;37207;53.060;18.726;2023-04-03T00:30:55;101760.26;;;-0.43;87.22
51147;BME280;37207;53.060;18.726;2023-04-03T00:33:21;101760.64;;;-0.44;87.03
51147;BME280;37207;53.060;18.726;2023-04-03T00:35:48;101760.02;;;-0.44;87.06
51147;BME280;37207;53.060;18.726;2023-04-03T00:38:14;101761.58;;;-0.45;87.09
51147;BME280;37207;53.060;18.726;2023-04-03T00:40:43;101760.71;;;-0.46;87.18
51147;BME280;37207;53.060;18.726;2023-04-03T00:43:16;101760.48;;;-0.46;87.27
51147;BME280;37207;53.060;18.726;2023-04-03T00:45:46;101766.45;;;-0.44;87.36
51147;BME280;37207;53.060;18.726;2023-04-03T00:48:35;101766.30;;;-0.45;87.49
51147;BME280;37207;53.060;18.726;2023-04-03T00:51:03;101764.11;;;-0.47;87.72
51147;BME280;37207;53.060;18.726;2023-04-03T00:53:41;101762.40;;;-0.48;86.96
51147;BME280;37207;53.060;18.726;2023-04-03T00:56:11;101764.95;;;-0.50;87.25
51147;BME280;37207;53.060;18.726;2023-04-03T00:58:43;101764.41;;;-0.54;87.76
51147;BME280;37207;53.060;18.726;2023-04-03T01:01:15;101765.56;;;-0.57;87.85
51147;BME280;37207;53.060;18.726;2023-04-03T01:03:42;101761.83;;;-0.59;87.76
51147;BME280;37207;53.060;18.726;2023-04-03T01:06:08;101766.00;;;-0.60;87.62
51147;BME280;37207;53.060;18.726;2023-04-03T01:08:34;101767.40;;;-0.59;87.78
51147;BME280;37207;53.060;18.726;2023-04-03T01:11:01;101767.94;;;-0.60;87.75
51147;BME280;37207;53.060;18.726;2023-04-03T01:13:30;101770.50;;;-0.60;87.76
51147;BME280;37207;53.060;18.726;2023-04-03T01:15:57;101767.31;;;-0.61;87.84
51147;BME280;37207;53.060;18.726;2023-04-03T01:18:26;101765.85;;;-0.60;87.73
51147;BME280;37207;53.060;18.726;2023-04-03T01:23:53;101768.41;;;-0.59;87.81
51147;BME280;37207;53.060;18.726;2023-04-03T01:26:21;101772.05;;;-0.60;87.88
51147;BME280;37207;53.060;18.726;2023-04-03T01:28:48;101772.51;;;-0.61;87.85
51147;BME280;37207;53.060;18.726;2023-04-03T01:31:52;101772.13;;;-0.60;87.88
51147;BME280;37207;53.060;18.726;2023-04-03T01:34:10;101777.41;;;-0.60;88.07
51147;BME280;37207;53.060;18.726;2023-04-03T01:36:36;101776.32;;;-0.59;88.03
51147;BME280;37207;53.060;18.726;2023-04-03T01:39:02;101775.55;;;-0.60;88.36
51147;BME280;37207;53.060;18.726;2023-04-03T01:41:29;101773.05;;;-0.60;88.41
51147;BME280;37207;53.060;18.726;2023-04-03T01:44:00;101775.07;;;-0.61;88.23
51147;BME280;37207;53.060;18.726;2023-04-03T01:46:26;101772.67;;;-0.59;88.29
51147;BME280;37207;53.060;18.726;2023-04-03T01:48:52;101774.77;;;-0.59;88.40
51147;BME280;37207;53.060;18.726;2023-04-03T01:51:18;101778.73;;;-0.59;88.56
51147;BME280;37207;53.060;18.726;2023-04-03T01:53:44;101778.18;;;-0.59;88.16
51147;BME280;37207;53.060;18.726;2023-04-03T01:56:10;101776.48;;;-0.59;88.03
51147;BME280;37207;53.060;18.726;2023-04-03T01:58:36;101777.58;;;-0.58;88.00
51147;BME280;37207;53.060;18.726;2023-04-03T02:01:02;101780.14;;;-0.57;87.93
51147;BME280;37207;53.060;18.726;2023-04-03T02:03:28;101778.35;;;-0.56;88.05
51147;BME280;37207;53.060;18.726;2023-04-03T02:05:54;101778.13;;;-0.55;88.29
51147;BME280;37207;53.060;18.726;2023-04-03T02:08:20;101781.39;;;-0.54;87.90
51147;BME280;37207;53.060;18.726;2023-04-03T02:10:47;101784.04;;;-0.52;87.86
51147;BME280;37207;53.060;18.726;2023-04-03T02:13:14;101784.96;;;-0.52;88.36
51147;BME280;37207;53.060;18.726;2023-04-03T02:15:41;101788.14;;;-0.51;88.10
51147;BME280;37207;53.060;18.726;2023-04-03T02:18:07;101786.36;;;-0.52;88.09
51147;BME280;37207;53.060;18.726;2023-04-03T02:20:33;101787.05;;;-0.51;87.95
51147;BME280;37207;53.060;18.726;2023-04-03T02:23:00;101789.45;;;-0.52;87.89
51147;BME280;37207;53.060;18.726;2023-04-03T02:25:26;101791.86;;;-0.52;87.82
51147;BME280;37207;53.060;18.726;2023-04-03T02:27:52;101790.33;;;-0.53;87.56
51147;BME280;37207;53.060;18.726;2023-04-03T02:30:18;101794.42;;;-0.53;87.54
51147;BME280;37207;53.060;18.726;2023-04-03T02:32:44;101798.23;;;-0.53;87.73
51147;BME280;37207;53.060;18.726;2023-04-03T02:35:10;101795.28;;;-0.54;87.59
51147;BME280;37207;53.060;18.726;2023-04-03T02:37:38;101800.39;;;-0.55;87.65
51147;BME280;37207;53.060;18.726;2023-04-03T02:40:05;101800.00;;;-0.55;87.26
51147;BME280;37207;53.060;18.726;2023-04-03T02:42:32;101802.79;;;-0.56;87.23
51147;BME280;37207;53.060;18.726;2023-04-03T02:44:58;101801.23;;;-0.55;87.33
51147;BME280;37207;53.060;18.726;2023-04-03T02:47:27;101808.60;;;-0.56;87.23
51147;BME280;37207;53.060;18.726;2023-04-03T02:49:53;101808.29;;;-0.56;87.29
51147;BME280;37207;53.060;18.726;2023-04-03T02:52:20;101810.23;;;-0.57;87.19
51147;BME280;37207;53.060;18.726;2023-04-03T02:54:47;101810.83;;;-0.60;86.79
51147;BME280;37207;53.060;18.726;2023-04-03T02:57:13;101806.54;;;-0.62;86.76
51147;BME280;37207;53.060;18.726;2023-04-03T02:59:39;101810.73;;;-0.63;86.80
51147;BME280;37207;53.060;18.726;2023-04-03T03:02:09;101809.86;;;-0.65;86.73
51147;BME280;37207;53.060;18.726;2023-04-03T03:04:36;101810.09;;;-0.66;86.74
51147;BME280;37207;53.060;18.726;2023-04-03T03:07:02;101816.27;;;-0.68;86.54
51147;BME280;37207;53.060;18.726;2023-04-03T03:09:29;101821.48;;;-0.69;86.66
51147;BME280;37207;53.060;18.726;2023-04-03T03:11:56;101819.52;;;-0.73;86.46
51147;BME280;37207;53.060;18.726;2023-04-03T03:14:23;101820.13;;;-0.74;86.59
51147;BME280;37207;53.060;18.726;2023-04-03T03:16:49;101823.83;;;-0.76;86.40
51147;BME280;37207;53.060;18.726;2023-04-03T03:19:15;101827.88;;;-0.75;86.62
51147;BME280;37207;53.060;18.726;2023-04-03T03:21:41;101826.31;;;-0.75;86.66
51147;BME280;37207;53.060;18.726;2023-04-03T03:24:07;101827.00;;;-0.77;86.19
51147;BME280;37207;53.060;18.726;2023-04-03T03:26:33;101829.16;;;-0.78;86.21
51147;BME280;37207;53.060;18.726;2023-04-03T03:29:01;101829.08;;;-0.79;85.89
51147;BME280;37207;53.060;18.726;2023-04-03T03:31:28;101830.23;;;-0.80;85.80
51147;BME280;37207;53.060;18.726;2023-04-03T03:33:54;101835.66;;;-0.80;85.73
51147;BME280;37207;53.060;18.726;2023-04-03T03:36:21;101835.66;;;-0.80;85.67
51147;BME280;37207;53.060;18.726;2023-04-03T03:38:47;101838.84;;;-0.80;85.37
51147;BME280;37207;53.060;18.726;2023-04-03T03:41:13;101835.58;;;-0.81;85.43
51147;BME280;37207;53.060;18.726;2023-04-03T03:43:41;101840.06;;;-0.81;85.16
51147;BME280;37207;53.060;18.726;2023-04-03T03:46:07;101839.51;;;-0.83;85.20
51147;BME280;37207;53.060;18.726;2023-04-03T03:48:33;101843.21;;;-0.84;84.91
51147;BME280;37207;53.060;18.726;2023-04-03T03:50:59;101842.05;;;-0.85;84.87
51147;BME280;37207;53.060;18.726;2023-04-03T03:53:28;101846.77;;;-0.86;84.91
51147;BME280;37207;53.060;18.726;2023-04-03T03:55:56;101849.95;;;-0.89;84.94
51147;BME280;37207;53.060;18.726;2023-04-03T03:58:23;101850.79;;;-0.91;84.45
51147;BME280;37207;53.060;18.726;2023-04-03T04:00:49;101850.15;;;-0.93;84.62
51147;BME280;37207;53.060;18.726;2023-04-03T04:03:15;101857.58;;;-0.94;84.85
51147;BME280;37207;53.060;18.726;2023-04-03T04:05:43;101859.96;;;-0.95;84.85
51147;BME280;37207;53.060;18.726;2023-04-03T04:08:09;101861.02;;;-0.98;85.02
51147;BME280;37207;53.060;18.726;2023-04-03T04:10:37;101864.79;;;-1.01;84.88
51147;BME280;37207;53.060;18.726;2023-04-03T04:13:03;101866.33;;;-1.03;84.93
51147;BME280;37207;53.060;18.726;2023-04-03T04:15:30;101865.70;;;-1.07;85.26
51147;BME280;37207;53.060;18.726;2023-04-03T04:17:57;101868.06;;;-1.10;85.24
51147;BME280;37207;53.060;18.726;2023-04-03T04:20:23;101870.45;;;-1.11;85.48
51147;BME280;37207;53.060;18.726;2023-04-03T04:22:49;101872.00;;;-1.13;85.26
51147;BME280;37207;53.060;18.726;2023-04-03T04:25:15;101871.38;;;-1.12;85.38
51147;BME280;37207;53.060;18.726;2023-04-03T04:27:41;101874.48;;;-1.12;85.41
51147;BME280;37207;53.060;18.726;2023-04-03T04:30:08;101869.52;;;-1.11;85.31
51147;BME280;37207;53.060;18.726;2023-04-03T04:32:34;101874.96;;;-1.11;85.27
51147;BME280;37207;53.060;18.726;2023-04-03T04:35:01;101876.90;;;-1.10;85.20
51147;BME280;37207;53.060;18.726;2023-04-03T04:37:28;101876.69;;;-1.08;85.31
51147;BME280;37207;53.060;18.726;2023-04-03T04:39:54;101880.98;;;-1.06;85.39
51147;BME280;37207;53.060;18.726;2023-04-03T04:42:20;101886.01;;;-1.03;85.22
51147;BME280;37207;53.060;18.726;2023-04-03T04:44:46;101889.66;;;-1.01;85.13
51147;BME280;37207;53.060;18.726;2023-04-03T04:47:12;101891.62;;;-0.99;84.81
51147;BME280;37207;53.060;18.726;2023-04-03T04:49:39;101895.35;;;-0.98;84.97
51147;BME280;37207;53.060;18.726;2023-04-03T04:52:05;101897.77;;;-0.88;85.30
51147;BME280;37207;53.060;18.726;2023-04-03T04:54:32;101901.14;;;-0.82;84.97
51147;BME280;37207;53.060;18.726;2023-04-03T04:56:58;101901.21;;;-0.83;84.68
51147;BME280;37207;53.060;18.726;2023-04-03T04:59:24;101906.75;;;-0.79;85.03
51147;BME280;37207;53.060;18.726;2023-04-03T05:01:51;101907.96;;;-0.74;84.75
51147;BME280;37207;53.060;18.726;2023-04-03T05:04:17;101908.14;;;-0.72;84.71
51147;BME280;37207;53.060;18.726;2023-04-03T05:06:44;101911.41;;;-0.71;84.82
51147;BME280;37207;53.060;18.726;2023-04-03T05:09:14;101914.98;;;-0.70;84.81
51147;BME280;37207;53.060;18.726;2023-04-03T05:11:41;101911.80;;;-0.67;84.75
51147;BME280;37207;53.060;18.726;2023-04-03T05:14:08;101916.00;;;-0.65;84.36
51147;BME280;37207;53.060;18.726;2023-04-03T05:16:34;101911.53;;;-0.62;84.40
51147;BME280;37207;53.060;18.726;2023-04-03T05:19:00;101909.61;;;-0.59;84.02
51147;BME280;37207;53.060;18.726;2023-04-03T05:21:26;101913.14;;;-0.56;83.75
51147;BME280;37207;53.060;18.726;2023-04-03T05:23:55;101914.48;;;-0.54;83.82
51147;BME280;37207;53.060;18.726;2023-04-03T05:26:21;101918.59;;;-0.50;83.68
51147;BME280;37207;53.060;18.726;2023-04-03T05:28:48;101922.45;;;-0.43;83.90
51147;BME280;37207;53.060;18.726;2023-04-03T05:31:14;101919.27;;;-0.28;83.47
51147;BME280;37207;53.060;18.726;2023-04-03T05:33:41;101918.72;;;-0.18;83.39
51147;BME280;37207;53.060;18.726;2023-04-03T05:36:08;101919.28;;;-0.13;82.72
51147;BME280;37207;53.060;18.726;2023-04-03T05:38:38;101921.77;;;-0.12;82.86
51147;BME280;37207;53.060;18.726;2023-04-03T05:41:05;101923.96;;;-0.10;82.54
51147;BME280;37207;53.060;18.726;2023-04-03T05:43:33;101921.56;;;-0.07;82.29
51147;BME280;37207;53.060;18.726;2023-04-03T05:46:01;101920.36;;;-0.01;82.12
51147;BME280;37207;53.060;18.726;2023-04-03T05:48:27;101924.80;;;0.04;81.32
51147;BME280;37207;53.060;18.726;2023-04-03T05:50:53;101921.46;;;0.05;81.49
51147;BME280;37207;53.060;18.726;2023-04-03T05:53:27;101924.14;;;0.09;81.53
51147;BME280;37207;53.060;18.726;2023-04-03T05:55:54;101923.77;;;0.13;80.62
51147;BME280;37207;53.060;18.726;2023-04-03T05:58:20;101924.34;;;0.16;80.65
51147;BME280;37207;53.060;18.726;2023-04-03T06:00:46;101928.44;;;0.19;80.37
51147;BME280;37207;53.060;18.726;2023-04-03T06:03:12;101927.59;;;0.21;80.06
51147;BME280;37207;53.060;18.726;2023-04-03T06:05:38;101931.66;;;0.25;80.08
51147;BME280;37207;53.060;18.726;2023-04-03T06:08:04;101930.83;;;0.31;80.15
51147;BME280;37207;53.060;18.726;2023-04-03T06:10:32;101928.44;;;0.37;78.98
51147;BME280;37207;53.060;18.726;2023-04-03T06:12:58;101930.85;;;0.40;78.40
51147;BME280;37207;53.060;18.726;2023-04-03T06:15:24;101929.95;;;0.47;78.19
51147;BME280;37207;53.060;18.726;2023-04-03T06:17:50;101933.92;;;0.55;77.56
51147;BME280;37207;53.060;18.726;2023-04-03T06:20:17;101942.64;;;0.57;77.25
51147;BME280;37207;53.060;18.726;2023-04-03T06:22:42;101942.98;;;0.64;77.33
51147;BME280;37207;53.060;18.726;2023-04-03T06:25:10;101940.52;;;0.69;76.56
51147;BME280;37207;53.060;18.726;2023-04-03T06:27:37;101941.58;;;0.70;76.08
51147;BME280;37207;53.060;18.726;2023-04-03T06:30:03;101946.02;;;0.74;75.81
51147;BME280;37207;53.060;18.726;2023-04-03T06:32:29;101944.11;;;0.80;74.69
51147;BME280;37207;53.060;18.726;2023-04-03T06:34:55;101945.05;;;0.84;73.98
51147;BME280;37207;53.060;18.726;2023-04-03T06:37:22;101952.92;;;1.05;74.16
51147;BME280;37207;53.060;18.726;2023-04-03T06:39:48;101957.20;;;1.48;73.41
51147;BME280;37207;53.060;18.726;2023-04-03T06:42:14;101952.55;;;2.90;72.90
51147;BME280;37207;53.060;18.726;2023-04-03T06:44:47;101960.63;;;4.99;70.61
51147;BME280;37207;53.060;18.726;2023-04-03T06:47:14;101963.79;;;6.58;67.58
51147;BME280;37207;53.060;18.726;2023-04-03T06:49:41;101968.15;;;6.96;65.23
51147;BME280;37207;53.060;18.726;2023-04-03T06:52:08;101964.30;;;8.16;64.92
51147;BME280;37207;53.060;18.726;2023-04-03T06:54:34;101966.99;;;9.43;60.88
51147;BME280;37207;53.060;18.726;2023-04-03T06:57:01;101973.48;;;10.69;57.75
51147;BME280;37207;53.060;18.726;2023-04-03T06:59:28;101972.84;;;11.80;52.94
51147;BME280;37207;53.060;18.726;2023-04-03T07:01:53;101971.27;;;12.41;48.70
51147;BME280;37207;53.060;18.726;2023-04-03T07:04:19;101974.55;;;12.57;44.94
51147;BME280;37207;53.060;18.726;2023-04-03T07:06:48;101981.20;;;12.35;44.08
51147;BME280;37207;53.060;18.726;2023-04-03T07:09:14;101990.48;;;11.70;44.70
51147;BME280;37207;53.060;18.726;2023-04-03T07:11:41;101992.61;;;11.41;45.10
51147;BME280;37207;53.060;18.726;2023-04-03T07:14:07;101992.62;;;11.22;45.09
51147;BME280;37207;53.060;18.726;2023-04-03T07:16:34;101991.23;;;10.75;43.01
51147;BME280;37207;53.060;18.726;2023-04-03T07:19:01;101993.69;;;10.25;42.62
51147;BME280;37207;53.060;18.726;2023-04-03T07:21:27;101995.56;;;10.35;42.54
51147;BME280;37207;53.060;18.726;2023-04-03T07:23:53;102003.56;;;10.62;43.09
51147;BME280;37207;53.060;18.726;2023-04-03T07:26:20;102002.02;;;11.00;42.81
51147;BME280;37207;53.060;18.726;2023-04-03T07:28:49;102002.87;;;11.86;41.87
51147;BME280;37207;53.060;18.726;2023-04-03T07:31:16;102005.91;;;12.80;40.32
51147;BME280;37207;53.060;18.726;2023-04-03T07:33:43;102004.07;;;13.69;39.67
51147;BME280;37207;53.060;18.726;2023-04-03T07:36:15;102001.84;;;14.33;38.46
51147;BME280;37207;53.060;18.726;2023-04-03T07:38:41;102008.81;;;14.88;37.55
51147;BME280;37207;53.060;18.726;2023-04-03T07:41:12;102010.92;;;15.21;38.10
51147;BME280;37207;53.060;18.726;2023-04-03T07:43:39;102010.64;;;15.63;37.45
51147;BME280;37207;53.060;18.726;2023-04-03T07:46:06;102010.55;;;15.77;36.47
51147;BME280;37207;53.060;18.726;2023-04-03T07:48:32;102014.90;;;15.75;36.34
51147;BME280;37207;53.060;18.726;2023-04-03T07:51:02;102018.73;;;15.61;35.26
51147;BME280;37207;53.060;18.726;2023-04-03T07:53:29;102011.96;;;15.09;34.18
51147;BME280;37207;53.060;18.726;2023-04-03T07:55:57;102014.11;;;14.60;34.65
51147;BME280;37207;53.060;18.726;2023-04-03T07:58:23;102017.38;;;14.27;36.03
51147;BME280;37207;53.060;18.726;2023-04-03T08:00:49;102018.98;;;13.89;36.46
51147;BME280;37207;53.060;18.726;2023-04-03T08:03:15;102017.33;;;13.46;37.50
51147;BME280;37207;53.060;18.726;2023-04-03T08:05:46;102020.89;;;13.00;38.53
51147;BME280;37207;53.060;18.726;2023-04-03T08:08:15;102020.91;;;12.32;38.13
51147;BME280;37207;53.060;18.726;2023-04-03T08:10:42;102021.85;;;11.52;38.62
51147;BME280;37207;53.060;18.726;2023-04-03T08:13:08;102019.77;;;10.65;38.76
51147;BME280;37207;53.060;18.726;2023-04-03T08:15:35;102021.15;;;9.88;39.75
51147;BME280;37207;53.060;18.726;2023-04-03T08:18:02;102022.20;;;9.20;40.52
51147;BME280;37207;53.060;18.726;2023-04-03T08:20:29;102023.31;;;8.59;41.89
51147;BME280;37207;53.060;18.726;2023-04-03T08:22:55;102022.95;;;8.15;43.27
51147;BME280;37207;53.060;18.726;2023-04-03T08:25:21;102023.03;;;7.91;44.44
51147;BME280;37207;53.060;18.726;2023-04-03T08:27:47;102029.34;;;7.71;44.91
51147;BME280;37207;53.060;18.726;2023-04-03T08:30:13;102025.08;;;7.60;45.40
51147;BME280;37207;53.060;18.726;2023-04-03T08:32:39;102023.08;;;7.45;44.99
51147;BME280;37207;53.060;18.726;2023-04-03T08:35:08;102021.55;;;7.30;45.41
51147;BME280;37207;53.060;18.726;2023-04-03T08:37:37;102028.30;;;7.15;45.85
51147;BME280;37207;53.060;18.726;2023-04-03T08:40:06;102021.80;;;7.05;45.77
51147;BME280;37207;53.060;18.726;2023-04-03T08:42:51;102028.59;;;6.89;45.96
51147;BME280;37207;53.060;18.726;2023-04-03T08:48:06;102033.29;;;6.71;46.83
51147;BME280;37207;53.060;18.726;2023-04-03T08:50:39;102030.17;;;6.74;46.80
51147;BME280;37207;53.060;18.726;2023-04-03T08:53:21;102027.25;;;6.78;46.68
51147;BME280;37207;53.060;18.726;2023-04-03T08:55:49;102032.43;;;6.81;47.18
51147;BME280;37207;53.060;18.726;2023-04-03T08:58:19;102033.90;;;6.93;47.11
51147;BME280;37207;53.060;18.726;2023-04-03T09:00:54;102031.91;;;7.02;46.78
51147;BME280;37207;53.060;18.726;2023-04-03T09:03:21;102026.98;;;7.12;46.74
51147;BME280;37207;53.060;18.726;2023-04-03T09:08:30;102032.28;;;7.17;45.96
51147;BME280;37207;53.060;18.726;2023-04-03T09:11:05;102037.20;;;7.11;46.66
51147;BME280;37207;53.060;18.726;2023-04-03T09:19:22;102029.14;;;8.47;45.03
51147;BME280;37207;53.060;18.726;2023-04-03T09:21:51;102028.40;;;10.57;42.92
51147;BME280;37207;53.060;18.726;2023-04-03T09:24:17;102028.56;;;11.58;40.76
51147;BME280;37207;53.060;18.726;2023-04-03T09:27:01;102031.06;;;11.61;39.94
51147;BME280;37207;53.060;18.726;2023-04-03T09:29:29;102027.64;;;11.32;41.21
51147;BME280;37207;53.060;18.726;2023-04-03T09:31:59;102028.13;;;11.07;41.24
51147;BME280;37207;53.060;18.726;2023-04-03T09:34:30;102025.31;;;10.80;41.48
51147;BME280;37207;53.060;18.726;2023-04-03T09:37:01;102026.45;;;10.51;41.76
51147;BME280;37207;53.060;18.726;2023-04-03T09:39:46;102028.09;;;10.21;42.22
51147;BME280;37207;53.060;18.726;2023-04-03T09:42:20;102019.70;;;10.03;42.47
51147;BME280;37207;53.060;18.726;2023-04-03T09:47:29;102022.21;;;9.97;43.41
51147;BME280;37207;53.060;18.726;2023-04-03T09:52:41;102021.33;;;9.71;42.46
51147;BME280;37207;53.060;18.726;2023-04-03T09:55:18;102019.91;;;9.50;41.85
51147;BME280;37207;53.060;18.726;2023-04-03T09:57:47;102020.15;;;8.97;41.58
51147;BME280;37207;53.060;18.726;2023-04-03T10:02:57;102016.54;;;8.92;42.83
51147;BME280;37207;53.060;18.726;2023-04-03T10:05:40;102019.15;;;8.83;42.40
51147;BME280;37207;53.060;18.726;2023-04-03T10:08:09;102019.36;;;9.12;42.93
51147;BME280;37207;53.060;18.726;2023-04-03T10:10:37;102017.23;;;9.94;43.26
51147;BME280;37207;53.060;18.726;2023-04-03T10:13:20;102014.80;;;11.26;41.62
51147;BME280;37207;53.060;18.726;2023-04-03T10:18:42;102007.64;;;14.50;37.70
51147;BME280;37207;53.060;18.726;2023-04-03T10:21:15;102004.61;;;14.81;35.17
51147;BME280;37207;53.060;18.726;2023-04-03T10:23:51;102005.11;;;13.95;35.43
51147;BME280;37207;53.060;18.726;2023-04-03T10:26:39;102005.48;;;15.07;35.85
51147;BME280;37207;53.060;18.726;2023-04-03T10:29:25;102007.26;;;16.42;33.46
51147;BME280;37207;53.060;18.726;2023-04-03T10:34:33;102001.48;;;16.43;32.04
51147;BME280;37207;53.060;18.726;2023-04-03T10:39:53;101994.88;;;15.06;31.65
51147;BME280;37207;53.060;18.726;2023-04-03T10:47:51;101996.93;;;16.61;31.17
51147;BME280;37207;53.060;18.726;2023-04-03T10:50:45;101993.69;;;16.40;31.13
51147;BME280;37207;53.060;18.726;2023-04-03T10:55:56;101990.63;;;15.57;31.97
51147;BME280;37207;53.060;18.726;2023-04-03T10:58:32;101986.02;;;15.20;33.45
51147;BME280;37207;53.060;18.726;2023-04-03T11:01:05;101984.79;;;14.72;34.24
51147;BME280;37207;53.060;18.726;2023-04-03T11:03:36;101979.58;;;14.27;35.30
51147;BME280;37207;53.060;18.726;2023-04-03T11:06:09;101979.67;;;13.99;36.12
51147;BME280;37207;53.060;18.726;2023-04-03T11:11:20;101988.92;;;12.82;36.83
51147;BME280;37207;53.060;18.726;2023-04-03T11:13:52;101988.98;;;12.00;36.26
51147;BME280;37207;53.060;18.726;2023-04-03T11:16:29;101986.11;;;11.50;37.76
51147;BME280;37207;53.060;18.726;2023-04-03T11:19:14;101979.80;;;11.20;38.65
51147;BME280;37207;53.060;18.726;2023-04-03T11:22:03;101982.11;;;10.74;38.64
51147;BME280;37207;53.060;18.726;2023-04-03T11:24:32;101982.46;;;10.56;39.50
51147;BME280;37207;53.060;18.726;2023-04-03T11:27:01;101977.15;;;10.48;39.19
51147;BME280;37207;53.060;18.726;2023-04-03T11:29:34;101974.84;;;10.47;39.50
51147;BME280;37207;53.060;18.726;2023-04-03T11:34:55;101971.13;;;9.73;39.43
51147;BME280;37207;53.060;18.726;2023-04-03T11:37:34;101969.89;;;9.93;41.73
51147;BME280;37207;53.060;18.726;2023-04-03T11:40:07;101968.81;;;9.96;40.74
51147;BME280;37207;53.060;18.726;2023-04-03T11:42:52;101972.00;;;9.52;39.63
51147;BME280;37207;53.060;18.726;2023-04-03T11:48:01;101961.19;;;9.69;42.21
51147;BME280;37207;53.060;18.726;2023-04-03T12:16:33;101953.43;;;8.95;40.11
51147;BME280;37207;53.060;18.726;2023-04-03T12:19:27;101951.83;;;10.17;40.67
51147;BME280;37207;53.060;18.726;2023-04-03T12:24:29;101949.25;;;9.49;40.52
51147;BME280;37207;53.060;18.726;2023-04-03T12:29:43;101948.77;;;8.32;41.19
51147;BME280;37207;53.060;18.726;2023-04-03T12:45:53;101942.28;;;10.58;39.46
51147;BME280;37207;53.060;18.726;2023-04-03T12:48:25;101937.25;;;9.66;39.44
51147;BME280;37207;53.060;18.726;2023-04-03T12:50:52;101948.66;;;8.87;39.44
51147;BME280;37207;53.060;18.726;2023-04-03T12:53:21;101943.14;;;9.34;41.13
51147;BME280;37207;53.060;18.726;2023-04-03T12:56:27;101937.83;;;10.46;41.01
51147;BME280;37207;53.060;18.726;2023-04-03T12:59:18;101933.22;;;11.13;39.54
51147;BME280;37207;53.060;18.726;2023-04-03T13:01:43;101940.50;;;10.21;38.58
51147;BME280;37207;53.060;18.726;2023-04-03T13:04:12;101943.79;;;9.64;39.78
51147;BME280;37207;53.060;18.726;2023-04-03T13:06:41;101937.83;;;10.29;39.19
51147;BME280;37207;53.060;18.726;2023-04-03T13:09:21;101930.25;;;11.05;39.09
51147;BME280;37207;53.060;18.726;2023-04-03T13:11:49;101932.84;;;11.57;38.89
51147;BME280;37207;53.060;18.726;2023-04-03T13:14:20;101933.57;;;11.07;38.54
51147;BME280;37207;53.060;18.726;2023-04-03T13:17:00;101933.10;;;10.09;38.61
51147;BME280;37207;53.060;18.726;2023-04-03T13:19:30;101935.00;;;8.98;38.80
51147;BME280;37207;53.060;18.726;2023-04-03T13:22:03;101934.61;;;8.19;40.33
51147;BME280;37207;53.060;18.726;2023-04-03T13:24:33;101932.54;;;8.19;41.50
51147;BME280;37207;53.060;18.726;2023-04-03T13:26:59;101929.61;;;8.84;41.84
51147;BME280;37207;53.060;18.726;2023-04-03T13:29:29;101930.55;;;8.59;41.79
51147;BME280;37207;53.060;18.726;2023-04-03T13:31:57;101934.58;;;8.16;43.22
51147;BME280;37207;53.060;18.726;2023-04-03T13:34:26;101938.53;;;7.67;44.34
51147;BME280;37207;53.060;18.726;2023-04-03T13:39:28;101935.73;;;6.83;45.26
51147;BME280;37207;53.060;18.726;2023-04-03T13:42:00;101934.80;;;6.68;45.88
51147;BME280;37207;53.060;18.726;2023-04-03T13:44:35;101929.46;;;7.18;45.72
51147;BME280;37207;53.060;18.726;2023-04-03T13:47:17;101928.80;;;7.69;46.26
51147;BME280;37207;53.060;18.726;2023-04-03T13:49:45;101924.88;;;8.15;45.56
51147;BME280;37207;53.060;18.726;2023-04-03T13:52:28;101931.20;;;7.94;44.64
51147;BME280;37207;53.060;18.726;2023-04-03T13:55:00;101934.44;;;7.24;44.49
51147;BME280;37207;53.060;18.726;2023-04-03T13:57:27;101941.98;;;6.87;45.41
51147;BME280;37207;53.060;18.726;2023-04-03T13:59:54;101936.66;;;6.86;45.88
51147;BME280;37207;53.060;18.726;2023-04-03T14:02:32;101930.45;;;6.97;45.91
51147;BME280;37207;53.060;18.726;2023-04-03T14:05:00;101935.68;;;6.94;45.68
51147;BME280;37207;53.060;18.726;2023-04-03T14:07:29;101934.86;;;6.79;46.76
51147;BME280;37207;53.060;18.726;2023-04-03T14:09:56;101925.10;;;6.90;47.53
51147;BME280;37207;53.060;18.726;2023-04-03T14:12:33;101918.42;;;7.11;47.62
51147;BME280;37207;53.060;18.726;2023-04-03T14:15:01;101916.79;;;7.29;47.07
51147;BME280;37207;53.060;18.726;2023-04-03T14:17:28;101918.36;;;7.19;46.60
51147;BME280;37207;53.060;18.726;2023-04-03T14:19:55;101925.20;;;7.13;47.17
51147;BME280;37207;53.060;18.726;2023-04-03T14:22:25;101923.16;;;7.26;47.79
51147;BME280;37207;53.060;18.726;2023-04-03T14:24:52;101931.90;;;7.28;47.34
51147;BME280;37207;53.060;18.726;2023-04-03T14:27:24;101928.82;;;7.28;47.00